sensor_id;sensor_type;location;lat;lon;timestamp;P1;durP1;ratioP1;P2;durP2;ratioP2
31716;SDS011;18301;51.076;17.046;2023-09-30T00:04:06;12.65;;;9.90;;
31716;SDS011;18301;51.076;17.046;2023-09-30T00:09:08;13.38;;;10.20;;
31716;SDS011;18301;51.076;17.046;2023-09-30T00:14:10;17.17;;;11.38;;
31716;SDS011;18301;51.076;17.046;2023-09-30T00:19:12;15.63;;;11.18;;
31716;SDS011;18301;51.076;17.046;2023-09-30T00:24:14;17.25;;;10.52;;
31716;SDS011;18301;51.076;17.046;2023-09-30T00:29:16;13.18;;;10.13;;
31716;SDS011;18301;51.076;17.046;2023-09-30T00:34:19;14.32;;;9.88;;
31716;SDS011;18301;51.076;17.046;2023-09-30T00:39:20;17.48;;;9.90;;
31716;SDS011;18301;51.076;17.046;2023-09-30T00:44:22;16.02;;;10.25;;
31716;SDS011;18301;51.076;17.046;2023-09-30T00:49:24;13.73;;;9.13;;
31716;SDS011;18301;51.076;17.046;2023-09-30T00:54:26;16.33;;;9.50;;
31716;SDS011;18301;51.076;17.046;2023-09-30T00:59:29;13.40;;;9.07;;
31716;SDS011;18301;51.076;17.046;2023-09-30T01:04:33;14.75;;;10.18;;
31716;SDS011;18301;51.076;17.046;2023-09-30T01:09:35;13.82;;;9.73;;
31716;SDS011;18301;51.076;17.046;2023-09-30T01:14:38;14.68;;;9.60;;
31716;SDS011;18301;51.076;17.046;2023-09-30T01:19:40;13.38;;;9.68;;
31716;SDS011;18301;51.076;17.046;2023-09-30T01:24:44;14.07;;;9.90;;
31716;SDS011;18301;51.076;17.046;2023-09-30T01:29:48;12.77;;;9.23;;
31716;SDS011;18301;51.076;17.046;2023-09-30T01:34:51;13.10;;;9.35;;
31716;SDS011;18301;51.076;17.046;2023-09-30T01:39:53;12.00;;;9.07;;
31716;SDS011;18301;51.076;17.046;2023-09-30T01:44:56;15.77;;;9.75;;
31716;SDS011;18301;51.076;17.046;2023-09-30T01:49:59;11.77;;;8.60;;
31716;SDS011;18301;51.076;17.046;2023-09-30T01:55:00;11.40;;;8.77;;
31716;SDS011;18301;51.076;17.046;2023-09-30T02:00:02;9.85;;;8.23;;
31716;SDS011;18301;51.076;17.046;2023-09-30T02:05:06;11.27;;;7.38;;
31716;SDS011;18301;51.076;17.046;2023-09-30T02:10:10;12.55;;;8.30;;
31716;SDS011;18301;51.076;17.046;2023-09-30T02:15:13;10.45;;;7.57;;
31716;SDS011;18301;51.076;17.046;2023-09-30T02:20:15;10.98;;;8.05;;
31716;SDS011;18301;51.076;17.046;2023-09-30T02:25:20;11.75;;;7.20;;
31716;SDS011;18301;51.076;17.046;2023-09-30T02:30:22;11.50;;;7.57;;
31716;SDS011;18301;51.076;17.046;2023-09-30T02:35:24;10.30;;;6.93;;
31716;SDS011;18301;51.076;17.046;2023-09-30T02:40:27;10.63;;;6.65;;
31716;SDS011;18301;51.076;17.046;2023-09-30T02:45:29;12.10;;;6.47;;
31716;SDS011;18301;51.076;17.046;2023-09-30T02:50:30;9.75;;;6.55;;
31716;SDS011;18301;51.076;17.046;2023-09-30T02:55:32;9.63;;;6.45;;
31716;SDS011;18301;51.076;17.046;2023-09-30T03:00:34;9.27;;;6.15;;
31716;SDS011;18301;51.076;17.046;2023-09-30T03:05:37;9.50;;;6.40;;
31716;SDS011;18301;51.076;17.046;2023-09-30T03:10:38;8.60;;;5.97;;
31716;SDS011;18301;51.076;17.046;2023-09-30T03:15:42;10.68;;;6.10;;
31716;SDS011;18301;51.076;17.046;2023-09-30T03:20:44;9.02;;;5.55;;
31716;SDS011;18301;51.076;17.046;2023-09-30T03:25:45;10.32;;;6.13;;
31716;SDS011;18301;51.076;17.046;2023-09-30T03:30:47;10.73;;;7.07;;
31716;SDS011;18301;51.076;17.046;2023-09-30T03:35:49;10.40;;;6.65;;
31716;SDS011;18301;51.076;17.046;2023-09-30T03:40:50;9.95;;;5.95;;
31716;SDS011;18301;51.076;17.046;2023-09-30T03:45:54;13.27;;;6.75;;
31716;SDS011;18301;51.076;17.046;2023-09-30T03:50:56;11.93;;;6.28;;
31716;SDS011;18301;51.076;17.046;2023-09-30T03:55:58;9.95;;;6.43;;
31716;SDS011;18301;51.076;17.046;2023-09-30T04:01:00;9.57;;;6.45;;
31716;SDS011;18301;51.076;17.046;2023-09-30T04:06:02;10.02;;;6.18;;
31716;SDS011;18301;51.076;17.046;2023-09-30T04:11:04;10.30;;;5.90;;
31716;SDS011;18301;51.076;17.046;2023-09-30T04:16:06;12.27;;;6.05;;
31716;SDS011;18301;51.076;17.046;2023-09-30T04:21:08;9.52;;;5.55;;
31716;SDS011;18301;51.076;17.046;2023-09-30T04:26:10;9.93;;;5.82;;
31716;SDS011;18301;51.076;17.046;2023-09-30T04:31:12;11.73;;;5.90;;
31716;SDS011;18301;51.076;17.046;2023-09-30T04:36:14;9.45;;;5.70;;
31716;SDS011;18301;51.076;17.046;2023-09-30T04:41:16;9.57;;;6.15;;
31716;SDS011;18301;51.076;17.046;2023-09-30T04:46:18;9.85;;;5.50;;
31716;SDS011;18301;51.076;17.046;2023-09-30T04:51:22;10.10;;;6.10;;
31716;SDS011;18301;51.076;17.046;2023-09-30T04:56:23;9.02;;;5.25;;
31716;SDS011;18301;51.076;17.046;2023-09-30T05:01:26;9.13;;;5.78;;
31716;SDS011;18301;51.076;17.046;2023-09-30T05:06:30;9.15;;;5.10;;
31716;SDS011;18301;51.076;17.046;2023-09-30T05:11:34;14.00;;;6.55;;
31716;SDS011;18301;51.076;17.046;2023-09-30T05:16:36;12.15;;;6.65;;
31716;SDS011;18301;51.076;17.046;2023-09-30T05:21:38;11.63;;;5.60;;
31716;SDS011;18301;51.076;17.046;2023-09-30T05:26:40;11.10;;;5.97;;
31716;SDS011;18301;51.076;17.046;2023-09-30T05:31:42;10.60;;;5.80;;
31716;SDS011;18301;51.076;17.046;2023-09-30T05:36:43;9.45;;;5.80;;
31716;SDS011;18301;51.076;17.046;2023-09-30T05:41:46;9.05;;;5.60;;
31716;SDS011;18301;51.076;17.046;2023-09-30T05:46:48;13.50;;;6.60;;
31716;SDS011;18301;51.076;17.046;2023-09-30T05:51:49;8.93;;;5.25;;
31716;SDS011;18301;51.076;17.046;2023-09-30T05:56:52;10.85;;;5.80;;
31716;SDS011;18301;51.076;17.046;2023-09-30T06:01:53;8.20;;;5.28;;
31716;SDS011;18301;51.076;17.046;2023-09-30T06:06:55;8.90;;;5.03;;
31716;SDS011;18301;51.076;17.046;2023-09-30T06:11:57;8.68;;;5.35;;
31716;SDS011;18301;51.076;17.046;2023-09-30T06:17:02;7.45;;;3.80;;
31716;SDS011;18301;51.076;17.046;2023-09-30T06:22:03;7.82;;;4.00;;
31716;SDS011;18301;51.076;17.046;2023-09-30T06:27:06;8.35;;;3.20;;
31716;SDS011;18301;51.076;17.046;2023-09-30T06:32:07;4.97;;;2.20;;
31716;SDS011;18301;51.076;17.046;2023-09-30T06:37:09;4.25;;;2.08;;
31716;SDS011;18301;51.076;17.046;2023-09-30T06:42:11;4.00;;;2.25;;
31716;SDS011;18301;51.076;17.046;2023-09-30T06:47:13;2.58;;;2.28;;
31716;SDS011;18301;51.076;17.046;2023-09-30T06:52:14;7.20;;;2.40;;
31716;SDS011;18301;51.076;17.046;2023-09-30T06:57:16;3.78;;;2.47;;
31716;SDS011;18301;51.076;17.046;2023-09-30T07:02:18;6.88;;;3.90;;
31716;SDS011;18301;51.076;17.046;2023-09-30T07:07:19;6.63;;;3.92;;
31716;SDS011;18301;51.076;17.046;2023-09-30T07:12:21;5.40;;;3.03;;
31716;SDS011;18301;51.076;17.046;2023-09-30T07:17:23;5.93;;;3.67;;
31716;SDS011;18301;51.076;17.046;2023-09-30T07:22:25;7.18;;;3.88;;
31716;SDS011;18301;51.076;17.046;2023-09-30T07:27:46;5.13;;;3.45;;
31716;SDS011;18301;51.076;17.046;2023-09-30T07:32:49;6.53;;;3.05;;
31716;SDS011;18301;51.076;17.046;2023-09-30T07:37:51;8.15;;;3.58;;
31716;SDS011;18301;51.076;17.046;2023-09-30T07:42:54;6.65;;;3.40;;
31716;SDS011;18301;51.076;17.046;2023-09-30T07:47:57;3.13;;;2.13;;
31716;SDS011;18301;51.076;17.046;2023-09-30T07:53:00;5.57;;;2.25;;
31716;SDS011;18301;51.076;17.046;2023-09-30T07:58:02;5.97;;;2.17;;
31716;SDS011;18301;51.076;17.046;2023-09-30T08:03:04;7.32;;;2.45;;
31716;SDS011;18301;51.076;17.046;2023-09-30T08:08:07;5.53;;;1.90;;
31716;SDS011;18301;51.076;17.046;2023-09-30T08:13:09;6.32;;;2.35;;
31716;SDS011;18301;51.076;17.046;2023-09-30T08:18:11;4.80;;;1.80;;
31716;SDS011;18301;51.076;17.046;2023-09-30T08:23:13;4.68;;;2.10;;
31716;SDS011;18301;51.076;17.046;2023-09-30T08:28:15;6.82;;;1.90;;
31716;SDS011;18301;51.076;17.046;2023-09-30T08:33:17;4.30;;;1.60;;
31716;SDS011;18301;51.076;17.046;2023-09-30T08:38:19;5.93;;;2.08;;
31716;SDS011;18301;51.076;17.046;2023-09-30T08:43:20;4.95;;;1.98;;
31716;SDS011;18301;51.076;17.046;2023-09-30T08:48:29;4.75;;;1.95;;
31716;SDS011;18301;51.076;17.046;2023-09-30T08:53:34;5.15;;;2.10;;
31716;SDS011;18301;51.076;17.046;2023-09-30T08:58:36;4.80;;;1.95;;
31716;SDS011;18301;51.076;17.046;2023-09-30T09:03:38;5.63;;;2.00;;
31716;SDS011;18301;51.076;17.046;2023-09-30T09:08:40;4.47;;;2.05;;
31716;SDS011;18301;51.076;17.046;2023-09-30T09:18:50;5.93;;;2.03;;
31716;SDS011;18301;51.076;17.046;2023-09-30T09:23:53;5.53;;;1.80;;
31716;SDS011;18301;51.076;17.046;2023-09-30T09:29:02;6.60;;;2.05;;
31716;SDS011;18301;51.076;17.046;2023-09-30T09:34:12;5.55;;;2.08;;
31716;SDS011;18301;51.076;17.046;2023-09-30T09:39:15;4.05;;;1.55;;
31716;SDS011;18301;51.076;17.046;2023-09-30T09:44:21;5.28;;;2.30;;
31716;SDS011;18301;51.076;17.046;2023-09-30T09:49:24;5.22;;;1.85;;
31716;SDS011;18301;51.076;17.046;2023-09-30T09:54:27;4.60;;;1.90;;
31716;SDS011;18301;51.076;17.046;2023-09-30T09:59:30;4.32;;;1.42;;
31716;SDS011;18301;51.076;17.046;2023-09-30T10:04:33;3.13;;;1.38;;
31716;SDS011;18301;51.076;17.046;2023-09-30T10:09:35;4.25;;;1.70;;
31716;SDS011;18301;51.076;17.046;2023-09-30T10:14:37;5.57;;;1.88;;
31716;SDS011;18301;51.076;17.046;2023-09-30T10:25:54;5.63;;;1.92;;
31716;SDS011;18301;51.076;17.046;2023-09-30T10:30:37;4.93;;;1.63;;
31716;SDS011;18301;51.076;17.046;2023-09-30T10:40:40;5.10;;;1.60;;
31716;SDS011;18301;51.076;17.046;2023-09-30T10:45:42;3.25;;;1.33;;
31716;SDS011;18301;51.076;17.046;2023-09-30T10:50:49;7.13;;;2.03;;
31716;SDS011;18301;51.076;17.046;2023-09-30T10:55:59;5.95;;;2.08;;
31716;SDS011;18301;51.076;17.046;2023-09-30T11:01:01;6.90;;;2.10;;
31716;SDS011;18301;51.076;17.046;2023-09-30T11:06:03;6.55;;;2.15;;
31716;SDS011;18301;51.076;17.046;2023-09-30T11:11:08;5.95;;;1.73;;
31716;SDS011;18301;51.076;17.046;2023-09-30T11:16:10;7.53;;;2.20;;
31716;SDS011;18301;51.076;17.046;2023-09-30T11:21:11;11.25;;;3.70;;
31716;SDS011;18301;51.076;17.046;2023-09-30T11:26:14;8.57;;;2.83;;
31716;SDS011;18301;51.076;17.046;2023-09-30T11:31:16;6.78;;;2.22;;
31716;SDS011;18301;51.076;17.046;2023-09-30T11:36:20;5.63;;;2.58;;
31716;SDS011;18301;51.076;17.046;2023-09-30T11:41:31;8.20;;;2.53;;
31716;SDS011;18301;51.076;17.046;2023-09-30T11:46:47;4.40;;;2.00;;
31716;SDS011;18301;51.076;17.046;2023-09-30T11:51:57;10.77;;;2.50;;
31716;SDS011;18301;51.076;17.046;2023-09-30T11:57:02;7.82;;;2.28;;
31716;SDS011;18301;51.076;17.046;2023-09-30T12:02:04;6.85;;;2.13;;
31716;SDS011;18301;51.076;17.046;2023-09-30T12:07:15;4.75;;;2.20;;
31716;SDS011;18301;51.076;17.046;2023-09-30T12:12:17;4.80;;;2.10;;
31716;SDS011;18301;51.076;17.046;2023-09-30T12:17:19;9.50;;;2.53;;
31716;SDS011;18301;51.076;17.046;2023-09-30T12:22:22;6.45;;;2.33;;
31716;SDS011;18301;51.076;17.046;2023-09-30T12:27:24;5.95;;;2.63;;
31716;SDS011;18301;51.076;17.046;2023-09-30T12:32:26;5.75;;;2.38;;
31716;SDS011;18301;51.076;17.046;2023-09-30T12:37:28;7.78;;;2.40;;
31716;SDS011;18301;51.076;17.046;2023-09-30T12:42:30;5.32;;;2.20;;
31716;SDS011;18301;51.076;17.046;2023-09-30T12:47:32;13.07;;;2.78;;
31716;SDS011;18301;51.076;17.046;2023-09-30T12:52:33;4.80;;;1.83;;
31716;SDS011;18301;51.076;17.046;2023-09-30T12:57:36;7.63;;;2.33;;
31716;SDS011;18301;51.076;17.046;2023-09-30T13:02:38;8.90;;;2.33;;
31716;SDS011;18301;51.076;17.046;2023-09-30T13:07:40;5.90;;;2.00;;
31716;SDS011;18301;51.076;17.046;2023-09-30T13:12:41;7.28;;;1.92;;
31716;SDS011;18301;51.076;17.046;2023-09-30T13:17:43;6.53;;;2.30;;
31716;SDS011;18301;51.076;17.046;2023-09-30T13:22:45;7.63;;;2.25;;
31716;SDS011;18301;51.076;17.046;2023-09-30T13:27:47;5.70;;;2.38;;
31716;SDS011;18301;51.076;17.046;2023-09-30T13:32:48;6.43;;;2.10;;
31716;SDS011;18301;51.076;17.046;2023-09-30T13:37:50;4.47;;;1.77;;
31716;SDS011;18301;51.076;17.046;2023-09-30T13:42:52;4.47;;;1.75;;
31716;SDS011;18301;51.076;17.046;2023-09-30T13:47:54;6.25;;;1.98;;
31716;SDS011;18301;51.076;17.046;2023-09-30T13:52:56;9.13;;;2.53;;
31716;SDS011;18301;51.076;17.046;2023-09-30T13:57:58;6.10;;;2.08;;
31716;SDS011;18301;51.076;17.046;2023-09-30T14:03:00;8.32;;;2.08;;
31716;SDS011;18301;51.076;17.046;2023-09-30T14:08:02;6.03;;;1.77;;
31716;SDS011;18301;51.076;17.046;2023-09-30T14:13:04;7.68;;;2.08;;
31716;SDS011;18301;51.076;17.046;2023-09-30T14:18:06;7.15;;;2.00;;
31716;SDS011;18301;51.076;17.046;2023-09-30T14:23:09;5.95;;;2.00;;
31716;SDS011;18301;51.076;17.046;2023-09-30T14:28:11;7.30;;;1.90;;
31716;SDS011;18301;51.076;17.046;2023-09-30T14:33:12;9.40;;;2.15;;
31716;SDS011;18301;51.076;17.046;2023-09-30T14:38:14;7.82;;;2.15;;
31716;SDS011;18301;51.076;17.046;2023-09-30T14:43:16;6.80;;;1.92;;
31716;SDS011;18301;51.076;17.046;2023-09-30T14:48:18;9.10;;;1.98;;
31716;SDS011;18301;51.076;17.046;2023-09-30T14:53:19;6.47;;;1.95;;
31716;SDS011;18301;51.076;17.046;2023-09-30T14:58:21;6.18;;;1.70;;
31716;SDS011;18301;51.076;17.046;2023-09-30T15:03:22;6.45;;;2.05;;
31716;SDS011;18301;51.076;17.046;2023-09-30T15:08:24;5.75;;;1.80;;
31716;SDS011;18301;51.076;17.046;2023-09-30T15:13:26;7.30;;;1.67;;
31716;SDS011;18301;51.076;17.046;2023-09-30T15:18:28;5.35;;;1.40;;
31716;SDS011;18301;51.076;17.046;2023-09-30T15:23:30;7.30;;;2.13;;
31716;SDS011;18301;51.076;17.046;2023-09-30T15:28:33;8.13;;;2.10;;
31716;SDS011;18301;51.076;17.046;2023-09-30T15:33:35;5.53;;;2.10;;
31716;SDS011;18301;51.076;17.046;2023-09-30T15:38:38;5.65;;;2.05;;
31716;SDS011;18301;51.076;17.046;2023-09-30T15:43:39;6.55;;;1.90;;
31716;SDS011;18301;51.076;17.046;2023-09-30T15:48:41;8.75;;;2.28;;
31716;SDS011;18301;51.076;17.046;2023-09-30T15:53:43;6.28;;;2.45;;
31716;SDS011;18301;51.076;17.046;2023-09-30T15:58:45;8.48;;;2.78;;
31716;SDS011;18301;51.076;17.046;2023-09-30T16:03:47;9.60;;;2.38;;
31716;SDS011;18301;51.076;17.046;2023-09-30T16:08:49;9.65;;;2.50;;
31716;SDS011;18301;51.076;17.046;2023-09-30T16:13:50;8.85;;;2.40;;
31716;SDS011;18301;51.076;17.046;2023-09-30T16:18:53;9.15;;;2.88;;
31716;SDS011;18301;51.076;17.046;2023-09-30T16:23:54;7.95;;;2.78;;
31716;SDS011;18301;51.076;17.046;2023-09-30T16:28:57;8.32;;;2.50;;
31716;SDS011;18301;51.076;17.046;2023-09-30T16:34:01;5.50;;;2.17;;
31716;SDS011;18301;51.076;17.046;2023-09-30T16:39:03;7.80;;;2.53;;
31716;SDS011;18301;51.076;17.046;2023-09-30T16:44:04;8.82;;;2.97;;
31716;SDS011;18301;51.076;17.046;2023-09-30T16:49:07;7.20;;;2.53;;
31716;SDS011;18301;51.076;17.046;2023-09-30T16:54:10;7.13;;;2.90;;
31716;SDS011;18301;51.076;17.046;2023-09-30T16:59:12;11.48;;;2.70;;
31716;SDS011;18301;51.076;17.046;2023-09-30T17:04:15;9.40;;;3.25;;
31716;SDS011;18301;51.076;17.046;2023-09-30T17:09:17;9.50;;;3.55;;
31716;SDS011;18301;51.076;17.046;2023-09-30T17:14:18;13.82;;;4.35;;
31716;SDS011;18301;51.076;17.046;2023-09-30T17:19:21;9.70;;;3.63;;
31716;SDS011;18301;51.076;17.046;2023-09-30T17:24:23;11.75;;;4.03;;
31716;SDS011;18301;51.076;17.046;2023-09-30T17:29:25;11.50;;;4.63;;
31716;SDS011;18301;51.076;17.046;2023-09-30T17:34:27;13.20;;;5.72;;
31716;SDS011;18301;51.076;17.046;2023-09-30T17:39:29;11.90;;;4.70;;
31716;SDS011;18301;51.076;17.046;2023-09-30T17:44:30;13.02;;;4.95;;
31716;SDS011;18301;51.076;17.046;2023-09-30T17:49:32;14.07;;;4.70;;
31716;SDS011;18301;51.076;17.046;2023-09-30T17:54:34;13.63;;;4.43;;
31716;SDS011;18301;51.076;17.046;2023-09-30T17:59:36;11.18;;;3.92;;
31716;SDS011;18301;51.076;17.046;2023-09-30T18:04:37;9.80;;;3.78;;
31716;SDS011;18301;51.076;17.046;2023-09-30T18:09:43;9.75;;;3.47;;
31716;SDS011;18301;51.076;17.046;2023-09-30T18:14:45;10.20;;;3.80;;
31716;SDS011;18301;51.076;17.046;2023-09-30T18:19:46;8.57;;;3.30;;
31716;SDS011;18301;51.076;17.046;2023-09-30T18:24:48;8.45;;;3.13;;
31716;SDS011;18301;51.076;17.046;2023-09-30T18:29:50;14.23;;;3.70;;
31716;SDS011;18301;51.076;17.046;2023-09-30T18:34:53;10.13;;;3.80;;
31716;SDS011;18301;51.076;17.046;2023-09-30T18:39:55;8.35;;;3.90;;
31716;SDS011;18301;51.076;17.046;2023-09-30T18:44:56;7.25;;;3.35;;
31716;SDS011;18301;51.076;17.046;2023-09-30T18:49:58;10.80;;;4.00;;
31716;SDS011;18301;51.076;17.046;2023-09-30T18:55:00;8.32;;;4.03;;
31716;SDS011;18301;51.076;17.046;2023-09-30T19:00:03;11.18;;;4.68;;
31716;SDS011;18301;51.076;17.046;2023-09-30T19:05:07;9.60;;;4.63;;
31716;SDS011;18301;51.076;17.046;2023-09-30T19:10:09;13.02;;;4.38;;
31716;SDS011;18301;51.076;17.046;2023-09-30T19:15:11;8.80;;;4.40;;
31716;SDS011;18301;51.076;17.046;2023-09-30T19:20:13;9.40;;;4.20;;
31716;SDS011;18301;51.076;17.046;2023-09-30T19:25:16;14.73;;;5.85;;
31716;SDS011;18301;51.076;17.046;2023-09-30T19:30:18;14.05;;;4.95;;
31716;SDS011;18301;51.076;17.046;2023-09-30T19:35:20;12.98;;;5.22;;
31716;SDS011;18301;51.076;17.046;2023-09-30T19:40:23;14.65;;;5.07;;
31716;SDS011;18301;51.076;17.046;2023-09-30T19:45:25;11.68;;;4.82;;
31716;SDS011;18301;51.076;17.046;2023-09-30T19:50:27;14.98;;;5.35;;
31716;SDS011;18301;51.076;17.046;2023-09-30T19:55:30;11.63;;;5.10;;
31716;SDS011;18301;51.076;17.046;2023-09-30T20:00:35;15.98;;;5.45;;
31716;SDS011;18301;51.076;17.046;2023-09-30T20:05:40;13.45;;;6.75;;
31716;SDS011;18301;51.076;17.046;2023-09-30T20:10:42;12.35;;;7.50;;
31716;SDS011;18301;51.076;17.046;2023-09-30T20:15:43;15.75;;;6.80;;
31716;SDS011;18301;51.076;17.046;2023-09-30T20:20:45;14.60;;;6.72;;
31716;SDS011;18301;51.076;17.046;2023-09-30T20:25:47;12.70;;;6.15;;
31716;SDS011;18301;51.076;17.046;2023-09-30T20:30:48;12.30;;;6.18;;
31716;SDS011;18301;51.076;17.046;2023-09-30T20:35:51;13.57;;;5.55;;
31716;SDS011;18301;51.076;17.046;2023-09-30T20:40:53;11.30;;;5.90;;
31716;SDS011;18301;51.076;17.046;2023-09-30T20:45:55;15.52;;;6.85;;
31716;SDS011;18301;51.076;17.046;2023-09-30T20:50:56;15.15;;;7.07;;
31716;SDS011;18301;51.076;17.046;2023-09-30T20:55:58;15.38;;;6.95;;
31716;SDS011;18301;51.076;17.046;2023-09-30T21:01:07;13.52;;;6.03;;
31716;SDS011;18301;51.076;17.046;2023-09-30T21:06:12;14.98;;;5.93;;
31716;SDS011;18301;51.076;17.046;2023-09-30T21:11:14;12.85;;;6.65;;
31716;SDS011;18301;51.076;17.046;2023-09-30T21:16:16;15.23;;;6.38;;
31716;SDS011;18301;51.076;17.046;2023-09-30T21:21:20;12.73;;;5.72;;
31716;SDS011;18301;51.076;17.046;2023-09-30T21:26:22;18.35;;;7.18;;
31716;SDS011;18301;51.076;17.046;2023-09-30T21:31:24;19.63;;;7.80;;
31716;SDS011;18301;51.076;17.046;2023-09-30T21:36:31;18.90;;;7.78;;
31716;SDS011;18301;51.076;17.046;2023-09-30T21:41:33;17.83;;;8.50;;
31716;SDS011;18301;51.076;17.046;2023-09-30T21:46:36;22.40;;;8.90;;
31716;SDS011;18301;51.076;17.046;2023-09-30T21:51:38;21.52;;;9.40;;
31716;SDS011;18301;51.076;17.046;2023-09-30T21:56:39;18.88;;;9.15;;
31716;SDS011;18301;51.076;17.046;2023-09-30T22:01:42;17.85;;;9.05;;
31716;SDS011;18301;51.076;17.046;2023-09-30T22:06:45;20.88;;;9.07;;
31716;SDS011;18301;51.076;17.046;2023-09-30T22:11:48;20.75;;;9.00;;
31716;SDS011;18301;51.076;17.046;2023-09-30T22:16:52;19.10;;;8.45;;
31716;SDS011;18301;51.076;17.046;2023-09-30T22:21:54;19.75;;;8.48;;
31716;SDS011;18301;51.076;17.046;2023-09-30T22:26:55;15.23;;;7.57;;
31716;SDS011;18301;51.076;17.046;2023-09-30T22:31:57;16.35;;;7.18;;
31716;SDS011;18301;51.076;17.046;2023-09-30T22:36:59;14.85;;;6.85;;
31716;SDS011;18301;51.076;17.046;2023-09-30T22:42:00;13.73;;;6.50;;
31716;SDS011;18301;51.076;17.046;2023-09-30T22:47:02;14.73;;;6.65;;
31716;SDS011;18301;51.076;17.046;2023-09-30T22:52:04;16.83;;;7.75;;
31716;SDS011;18301;51.076;17.046;2023-09-30T22:57:06;17.10;;;7.63;;
31716;SDS011;18301;51.076;17.046;2023-09-30T23:02:07;13.63;;;6.47;;
31716;SDS011;18301;51.076;17.046;2023-09-30T23:07:09;14.52;;;6.50;;
31716;SDS011;18301;51.076;17.046;2023-09-30T23:12:13;14.98;;;5.95;;
31716;SDS011;18301;51.076;17.046;2023-09-30T23:17:16;14.65;;;6.07;;
31716;SDS011;18301;51.076;17.046;2023-09-30T23:22:18;12.32;;;6.03;;
31716;SDS011;18301;51.076;17.046;2023-09-30T23:27:20;11.45;;;5.80;;
31716;SDS011;18301;51.076;17.046;2023-09-30T23:32:22;16.45;;;6.22;;
31716;SDS011;18301;51.076;17.046;2023-09-30T23:37:26;13.00;;;5.50;;
31716;SDS011;18301;51.076;17.046;2023-09-30T23:42:27;14.75;;;6.00;;
31716;SDS011;18301;51.076;17.046;2023-09-30T23:47:29;14.82;;;6.20;;
31716;SDS011;18301;51.076;17.046;2023-09-30T23:52:52;13.13;;;5.80;;
31716;SDS011;18301;51.076;17.046;2023-09-30T23:58:00;14.27;;;5.60;;
